EHMG

L9-ff-1 Sea

L9-ff-1 Sea, The Netherlands
METAR EHMG 170755Z AUTO 31012KT 9999 FEW027 07/M01 Q1020 W///H///
Observed Flight Rules
Dec-17 @ 07:55 UTC (21 minutes ago) Visual Flight Rules
Wind Visibility Clouds
310° at 12 knots 10,000+ meters
  • Few at 2,700' AGL
Temperatures Readings
Current 7°C / 45°F
Dewpoint -1°C / 30°F
Humidity 57%
Altimeter 30.12" Hg
Pressure 1020 hPa
Elevation 50
METAR EHMG 170755Z AUTO 31012KT 9999 FEW027 07/M01 Q1020 W///H///
Observed Flight Rules
Dec-17 @ 07:55 UTC
(21 minutes ago)
VFR
Wind Visibility
310° at 12 knots 10,000+ meters
Clouds
  • Few at 2,700' AGL
Temperature Dewpoint
7°C / 45°F -1°C / 30°F
Humidity Altimeter Pressure
57% 30.12" Hg 1020 hPa